sensor_id;sensor_type;location;lat;lon;timestamp;P1;durP1;ratioP1;P2;durP2;ratioP2
32038;SDS011;18549;42.286;22.688;2023-05-19T00:02:15;7.17;;;3.63;;
32038;SDS011;18549;42.286;22.688;2023-05-19T00:04:45;5.17;;;2.93;;
32038;SDS011;18549;42.286;22.688;2023-05-19T00:07:12;3.87;;;2.83;;
32038;SDS011;18549;42.286;22.688;2023-05-19T00:09:43;5.57;;;3.00;;
32038;SDS011;18549;42.286;22.688;2023-05-19T00:12:12;3.93;;;2.57;;
32038;SDS011;18549;42.286;22.688;2023-05-19T00:14:40;3.80;;;2.63;;
32038;SDS011;18549;42.286;22.688;2023-05-19T00:17:07;3.57;;;2.40;;
32038;SDS011;18549;42.286;22.688;2023-05-19T00:19:34;4.80;;;2.50;;
32038;SDS011;18549;42.286;22.688;2023-05-19T00:22:02;3.37;;;2.97;;
32038;SDS011;18549;42.286;22.688;2023-05-19T00:24:29;5.83;;;2.90;;
32038;SDS011;18549;42.286;22.688;2023-05-19T00:26:55;4.47;;;2.77;;
32038;SDS011;18549;42.286;22.688;2023-05-19T00:29:23;6.63;;;2.90;;
32038;SDS011;18549;42.286;22.688;2023-05-19T00:31:50;6.80;;;2.50;;
32038;SDS011;18549;42.286;22.688;2023-05-19T00:34:17;4.07;;;2.27;;
32038;SDS011;18549;42.286;22.688;2023-05-19T00:36:43;4.40;;;2.87;;
32038;SDS011;18549;42.286;22.688;2023-05-19T00:39:10;4.23;;;2.43;;
32038;SDS011;18549;42.286;22.688;2023-05-19T00:41:37;7.50;;;2.23;;
32038;SDS011;18549;42.286;22.688;2023-05-19T00:44:05;3.77;;;2.60;;
32038;SDS011;18549;42.286;22.688;2023-05-19T00:46:33;6.67;;;2.57;;
32038;SDS011;18549;42.286;22.688;2023-05-19T00:49:00;4.33;;;2.90;;
32038;SDS011;18549;42.286;22.688;2023-05-19T00:51:27;7.93;;;2.50;;
32038;SDS011;18549;42.286;22.688;2023-05-19T00:53:55;3.97;;;2.83;;
32038;SDS011;18549;42.286;22.688;2023-05-19T00:56:22;5.40;;;2.50;;
32038;SDS011;18549;42.286;22.688;2023-05-19T00:58:49;6.47;;;2.80;;
32038;SDS011;18549;42.286;22.688;2023-05-19T01:01:17;10.90;;;3.53;;
32038;SDS011;18549;42.286;22.688;2023-05-19T01:03:46;5.80;;;4.40;;
32038;SDS011;18549;42.286;22.688;2023-05-19T01:06:13;4.53;;;2.77;;
32038;SDS011;18549;42.286;22.688;2023-05-19T01:08:43;7.63;;;3.03;;
32038;SDS011;18549;42.286;22.688;2023-05-19T01:11:09;7.80;;;3.73;;
32038;SDS011;18549;42.286;22.688;2023-05-19T01:13:36;2.43;;;2.10;;
32038;SDS011;18549;42.286;22.688;2023-05-19T01:16:04;5.43;;;2.53;;
32038;SDS011;18549;42.286;22.688;2023-05-19T01:18:38;4.70;;;2.60;;
32038;SDS011;18549;42.286;22.688;2023-05-19T01:27:17;3.90;;;2.57;;
32038;SDS011;18549;42.286;22.688;2023-05-19T01:30:19;5.67;;;2.90;;
32038;SDS011;18549;42.286;22.688;2023-05-19T01:32:52;3.50;;;2.37;;
32038;SDS011;18549;42.286;22.688;2023-05-19T01:35:20;4.60;;;2.80;;
32038;SDS011;18549;42.286;22.688;2023-05-19T01:37:49;6.73;;;2.20;;
32038;SDS011;18549;42.286;22.688;2023-05-19T01:40:17;2.17;;;1.90;;
32038;SDS011;18549;42.286;22.688;2023-05-19T01:42:44;6.93;;;2.33;;
32038;SDS011;18549;42.286;22.688;2023-05-19T01:45:12;4.27;;;2.20;;
32038;SDS011;18549;42.286;22.688;2023-05-19T01:47:41;4.53;;;2.10;;
32038;SDS011;18549;42.286;22.688;2023-05-19T01:50:09;9.47;;;2.40;;
32038;SDS011;18549;42.286;22.688;2023-05-19T01:52:36;7.47;;;2.17;;
32038;SDS011;18549;42.286;22.688;2023-05-19T01:55:03;7.23;;;2.50;;
32038;SDS011;18549;42.286;22.688;2023-05-19T01:57:32;4.93;;;2.70;;
32038;SDS011;18549;42.286;22.688;2023-05-19T02:00:06;6.30;;;3.13;;
32038;SDS011;18549;42.286;22.688;2023-05-19T02:02:42;3.10;;;2.33;;
32038;SDS011;18549;42.286;22.688;2023-05-19T02:05:30;3.33;;;2.37;;
32038;SDS011;18549;42.286;22.688;2023-05-19T02:08:05;3.50;;;2.37;;
32038;SDS011;18549;42.286;22.688;2023-05-19T02:10:39;6.30;;;2.43;;
32038;SDS011;18549;42.286;22.688;2023-05-19T02:13:07;10.37;;;3.30;;
32038;SDS011;18549;42.286;22.688;2023-05-19T02:15:38;5.23;;;2.83;;
32038;SDS011;18549;42.286;22.688;2023-05-19T02:18:09;5.73;;;2.87;;
32038;SDS011;18549;42.286;22.688;2023-05-19T02:20:37;4.50;;;3.10;;
32038;SDS011;18549;42.286;22.688;2023-05-19T02:23:04;8.13;;;3.80;;
32038;SDS011;18549;42.286;22.688;2023-05-19T02:25:30;7.33;;;4.37;;
32038;SDS011;18549;42.286;22.688;2023-05-19T02:27:57;8.73;;;5.37;;
32038;SDS011;18549;42.286;22.688;2023-05-19T02:30:24;8.17;;;5.27;;
32038;SDS011;18549;42.286;22.688;2023-05-19T02:32:51;4.63;;;3.13;;
32038;SDS011;18549;42.286;22.688;2023-05-19T02:35:19;5.43;;;3.17;;
32038;SDS011;18549;42.286;22.688;2023-05-19T02:37:46;4.90;;;3.07;;
32038;SDS011;18549;42.286;22.688;2023-05-19T02:40:13;3.20;;;2.33;;
32038;SDS011;18549;42.286;22.688;2023-05-19T02:42:39;4.83;;;3.00;;
32038;SDS011;18549;42.286;22.688;2023-05-19T02:45:06;5.17;;;3.40;;
32038;SDS011;18549;42.286;22.688;2023-05-19T02:47:33;4.27;;;3.00;;
32038;SDS011;18549;42.286;22.688;2023-05-19T02:50:00;7.63;;;4.00;;
32038;SDS011;18549;42.286;22.688;2023-05-19T02:52:28;13.63;;;3.43;;
32038;SDS011;18549;42.286;22.688;2023-05-19T02:54:55;10.70;;;2.93;;
32038;SDS011;18549;42.286;22.688;2023-05-19T02:57:22;5.63;;;3.43;;
32038;SDS011;18549;42.286;22.688;2023-05-19T02:59:49;3.77;;;3.10;;
32038;SDS011;18549;42.286;22.688;2023-05-19T03:02:15;4.70;;;2.87;;
32038;SDS011;18549;42.286;22.688;2023-05-19T03:04:42;6.50;;;3.43;;
32038;SDS011;18549;42.286;22.688;2023-05-19T03:07:09;6.60;;;2.97;;
32038;SDS011;18549;42.286;22.688;2023-05-19T03:09:38;6.57;;;2.70;;
32038;SDS011;18549;42.286;22.688;2023-05-19T03:12:05;2.90;;;2.30;;
32038;SDS011;18549;42.286;22.688;2023-05-19T03:14:32;7.97;;;2.20;;
32038;SDS011;18549;42.286;22.688;2023-05-19T03:17:01;3.23;;;2.50;;
32038;SDS011;18549;42.286;22.688;2023-05-19T03:19:28;3.23;;;2.27;;
32038;SDS011;18549;42.286;22.688;2023-05-19T03:21:56;3.57;;;2.20;;
32038;SDS011;18549;42.286;22.688;2023-05-19T03:24:23;5.20;;;2.53;;
32038;SDS011;18549;42.286;22.688;2023-05-19T03:26:51;12.33;;;2.17;;
32038;SDS011;18549;42.286;22.688;2023-05-19T03:29:17;7.17;;;2.50;;
32038;SDS011;18549;42.286;22.688;2023-05-19T03:31:44;8.73;;;2.87;;
32038;SDS011;18549;42.286;22.688;2023-05-19T03:34:11;10.10;;;3.33;;
32038;SDS011;18549;42.286;22.688;2023-05-19T03:36:37;4.33;;;3.13;;
32038;SDS011;18549;42.286;22.688;2023-05-19T03:39:04;8.90;;;4.93;;
32038;SDS011;18549;42.286;22.688;2023-05-19T03:41:31;12.80;;;6.30;;
32038;SDS011;18549;42.286;22.688;2023-05-19T03:43:59;21.83;;;12.23;;
32038;SDS011;18549;42.286;22.688;2023-05-19T03:46:26;18.80;;;12.13;;
32038;SDS011;18549;42.286;22.688;2023-05-19T03:48:52;23.70;;;12.17;;
32038;SDS011;18549;42.286;22.688;2023-05-19T03:51:19;18.10;;;10.13;;
32038;SDS011;18549;42.286;22.688;2023-05-19T03:53:46;19.93;;;11.50;;
32038;SDS011;18549;42.286;22.688;2023-05-19T03:56:12;27.67;;;11.77;;
32038;SDS011;18549;42.286;22.688;2023-05-19T03:58:40;19.93;;;10.47;;
32038;SDS011;18549;42.286;22.688;2023-05-19T04:01:10;20.67;;;10.83;;
32038;SDS011;18549;42.286;22.688;2023-05-19T04:03:37;18.80;;;11.60;;
32038;SDS011;18549;42.286;22.688;2023-05-19T04:06:03;19.97;;;10.60;;
32038;SDS011;18549;42.286;22.688;2023-05-19T04:08:30;24.60;;;9.77;;
32038;SDS011;18549;42.286;22.688;2023-05-19T04:10:57;16.17;;;8.23;;
32038;SDS011;18549;42.286;22.688;2023-05-19T04:13:24;13.03;;;7.97;;
32038;SDS011;18549;42.286;22.688;2023-05-19T04:15:50;16.00;;;8.20;;
32038;SDS011;18549;42.286;22.688;2023-05-19T04:18:19;15.03;;;8.57;;
32038;SDS011;18549;42.286;22.688;2023-05-19T04:20:45;17.30;;;8.03;;
32038;SDS011;18549;42.286;22.688;2023-05-19T04:23:12;28.77;;;10.23;;
32038;SDS011;18549;42.286;22.688;2023-05-19T04:25:39;41.70;;;21.53;;
32038;SDS011;18549;42.286;22.688;2023-05-19T04:28:06;33.97;;;13.77;;
32038;SDS011;18549;42.286;22.688;2023-05-19T04:30:32;20.23;;;13.93;;
32038;SDS011;18549;42.286;22.688;2023-05-19T04:33:00;19.80;;;12.50;;
32038;SDS011;18549;42.286;22.688;2023-05-19T04:35:30;16.33;;;10.23;;
32038;SDS011;18549;42.286;22.688;2023-05-19T04:37:56;14.20;;;8.50;;
32038;SDS011;18549;42.286;22.688;2023-05-19T04:40:24;14.43;;;6.60;;
32038;SDS011;18549;42.286;22.688;2023-05-19T04:42:50;11.07;;;7.33;;
32038;SDS011;18549;42.286;22.688;2023-05-19T04:45:18;11.27;;;7.90;;
32038;SDS011;18549;42.286;22.688;2023-05-19T04:47:44;10.03;;;6.47;;
32038;SDS011;18549;42.286;22.688;2023-05-19T04:50:12;14.27;;;6.77;;
32038;SDS011;18549;42.286;22.688;2023-05-19T04:52:40;14.90;;;6.03;;
32038;SDS011;18549;42.286;22.688;2023-05-19T04:55:09;17.93;;;6.50;;
32038;SDS011;18549;42.286;22.688;2023-05-19T04:57:37;8.70;;;4.97;;
32038;SDS011;18549;42.286;22.688;2023-05-19T05:00:04;20.37;;;5.80;;
32038;SDS011;18549;42.286;22.688;2023-05-19T05:02:33;11.13;;;6.30;;
32038;SDS011;18549;42.286;22.688;2023-05-19T05:05:00;16.77;;;7.40;;
32038;SDS011;18549;42.286;22.688;2023-05-19T05:07:26;18.17;;;9.80;;
32038;SDS011;18549;42.286;22.688;2023-05-19T05:09:54;20.17;;;8.90;;
32038;SDS011;18549;42.286;22.688;2023-05-19T05:12:21;18.27;;;8.30;;
32038;SDS011;18549;42.286;22.688;2023-05-19T05:14:49;17.07;;;8.63;;
32038;SDS011;18549;42.286;22.688;2023-05-19T05:17:16;14.70;;;6.53;;
32038;SDS011;18549;42.286;22.688;2023-05-19T05:19:43;16.47;;;7.17;;
32038;SDS011;18549;42.286;22.688;2023-05-19T05:22:10;12.50;;;7.73;;
32038;SDS011;18549;42.286;22.688;2023-05-19T05:24:38;18.53;;;8.10;;
32038;SDS011;18549;42.286;22.688;2023-05-19T05:27:06;14.83;;;8.67;;
32038;SDS011;18549;42.286;22.688;2023-05-19T05:29:34;17.23;;;8.90;;
32038;SDS011;18549;42.286;22.688;2023-05-19T05:32:01;15.83;;;10.27;;
32038;SDS011;18549;42.286;22.688;2023-05-19T05:34:27;19.23;;;11.70;;
32038;SDS011;18549;42.286;22.688;2023-05-19T05:36:54;25.77;;;11.83;;
32038;SDS011;18549;42.286;22.688;2023-05-19T05:39:21;17.47;;;10.70;;
32038;SDS011;18549;42.286;22.688;2023-05-19T05:41:47;16.77;;;9.33;;
32038;SDS011;18549;42.286;22.688;2023-05-19T05:44:16;22.70;;;10.13;;
32038;SDS011;18549;42.286;22.688;2023-05-19T05:46:42;20.37;;;9.27;;
32038;SDS011;18549;42.286;22.688;2023-05-19T05:49:10;19.67;;;9.47;;
32038;SDS011;18549;42.286;22.688;2023-05-19T05:51:37;13.47;;;8.20;;
32038;SDS011;18549;42.286;22.688;2023-05-19T05:54:05;14.83;;;8.53;;
32038;SDS011;18549;42.286;22.688;2023-05-19T05:56:35;14.40;;;7.60;;
32038;SDS011;18549;42.286;22.688;2023-05-19T05:59:02;11.67;;;6.40;;
32038;SDS011;18549;42.286;22.688;2023-05-19T06:01:30;11.50;;;6.60;;
32038;SDS011;18549;42.286;22.688;2023-05-19T06:03:56;11.57;;;6.20;;
32038;SDS011;18549;42.286;22.688;2023-05-19T06:06:23;8.50;;;5.57;;
32038;SDS011;18549;42.286;22.688;2023-05-19T06:08:50;10.63;;;5.47;;
32038;SDS011;18549;42.286;22.688;2023-05-19T06:11:16;8.00;;;5.20;;
32038;SDS011;18549;42.286;22.688;2023-05-19T06:13:43;9.90;;;7.57;;
32038;SDS011;18549;42.286;22.688;2023-05-19T06:16:10;10.33;;;6.93;;
32038;SDS011;18549;42.286;22.688;2023-05-19T06:18:38;14.17;;;10.03;;
32038;SDS011;18549;42.286;22.688;2023-05-19T06:21:05;10.77;;;6.28;;
32038;SDS011;18549;42.286;22.688;2023-05-19T06:23:34;5.30;;;4.70;;
32038;SDS011;18549;42.286;22.688;2023-05-19T06:26:00;12.47;;;6.13;;
32038;SDS011;18549;42.286;22.688;2023-05-19T06:28:27;7.43;;;5.10;;
32038;SDS011;18549;42.286;22.688;2023-05-19T06:30:54;13.00;;;5.47;;
32038;SDS011;18549;42.286;22.688;2023-05-19T06:33:20;7.73;;;3.97;;
32038;SDS011;18549;42.286;22.688;2023-05-19T06:35:48;7.07;;;5.20;;
32038;SDS011;18549;42.286;22.688;2023-05-19T06:38:15;8.00;;;5.20;;
32038;SDS011;18549;42.286;22.688;2023-05-19T06:40:42;10.35;;;4.90;;
32038;SDS011;18549;42.286;22.688;2023-05-19T06:43:09;7.87;;;4.77;;
32038;SDS011;18549;42.286;22.688;2023-05-19T06:45:35;9.67;;;5.90;;
32038;SDS011;18549;42.286;22.688;2023-05-19T06:48:02;6.07;;;4.47;;
32038;SDS011;18549;42.286;22.688;2023-05-19T06:50:29;12.03;;;5.90;;
32038;SDS011;18549;42.286;22.688;2023-05-19T06:52:57;11.20;;;4.83;;
32038;SDS011;18549;42.286;22.688;2023-05-19T06:55:24;8.77;;;4.80;;
32038;SDS011;18549;42.286;22.688;2023-05-19T06:57:51;7.62;;;4.78;;
32038;SDS011;18549;42.286;22.688;2023-05-19T07:00:17;6.97;;;5.07;;
32038;SDS011;18549;42.286;22.688;2023-05-19T07:02:44;6.60;;;4.97;;
32038;SDS011;18549;42.286;22.688;2023-05-19T07:05:11;9.43;;;5.25;;
32038;SDS011;18549;42.286;22.688;2023-05-19T07:07:37;5.25;;;4.75;;
32038;SDS011;18549;42.286;22.688;2023-05-19T07:10:06;7.78;;;4.90;;
32038;SDS011;18549;42.286;22.688;2023-05-19T07:12:33;5.07;;;4.57;;
32038;SDS011;18549;42.286;22.688;2023-05-19T07:15:00;6.07;;;4.70;;
32038;SDS011;18549;42.286;22.688;2023-05-19T07:17:27;6.70;;;4.50;;
32038;SDS011;18549;42.286;22.688;2023-05-19T07:19:53;7.60;;;5.13;;
32038;SDS011;18549;42.286;22.688;2023-05-19T07:22:20;8.23;;;6.12;;
32038;SDS011;18549;42.286;22.688;2023-05-19T07:24:48;7.10;;;5.35;;
32038;SDS011;18549;42.286;22.688;2023-05-19T07:27:16;15.68;;;6.45;;
32038;SDS011;18549;42.286;22.688;2023-05-19T07:29:43;12.50;;;6.07;;
32038;SDS011;18549;42.286;22.688;2023-05-19T07:32:09;6.57;;;5.72;;
32038;SDS011;18549;42.286;22.688;2023-05-19T07:34:36;11.20;;;6.43;;
32038;SDS011;18549;42.286;22.688;2023-05-19T07:37:03;7.85;;;5.87;;
32038;SDS011;18549;42.286;22.688;2023-05-19T07:39:29;7.40;;;5.53;;
32038;SDS011;18549;42.286;22.688;2023-05-19T07:41:56;8.70;;;5.97;;
32038;SDS011;18549;42.286;22.688;2023-05-19T07:44:24;7.73;;;5.87;;
32038;SDS011;18549;42.286;22.688;2023-05-19T07:46:52;7.70;;;5.12;;
32038;SDS011;18549;42.286;22.688;2023-05-19T07:49:19;12.02;;;5.95;;
32038;SDS011;18549;42.286;22.688;2023-05-19T07:51:45;17.52;;;6.75;;
32038;SDS011;18549;42.286;22.688;2023-05-19T07:54:12;11.27;;;5.85;;
32038;SDS011;18549;42.286;22.688;2023-05-19T07:56:39;13.35;;;5.40;;
32038;SDS011;18549;42.286;22.688;2023-05-19T07:59:05;8.15;;;6.55;;
32038;SDS011;18549;42.286;22.688;2023-05-19T08:01:34;14.80;;;6.25;;
32038;SDS011;18549;42.286;22.688;2023-05-19T08:04:01;9.32;;;6.35;;
32038;SDS011;18549;42.286;22.688;2023-05-19T08:06:28;11.88;;;5.85;;
32038;SDS011;18549;42.286;22.688;2023-05-19T08:08:55;11.55;;;6.55;;
32038;SDS011;18549;42.286;22.688;2023-05-19T08:11:22;14.73;;;7.37;;
32038;SDS011;18549;42.286;22.688;2023-05-19T08:13:49;10.10;;;6.68;;
32038;SDS011;18549;42.286;22.688;2023-05-19T08:16:15;11.73;;;6.57;;
32038;SDS011;18549;42.286;22.688;2023-05-19T08:18:43;18.50;;;6.70;;
32038;SDS011;18549;42.286;22.688;2023-05-19T08:21:10;12.75;;;6.72;;
32038;SDS011;18549;42.286;22.688;2023-05-19T08:23:37;11.63;;;7.00;;
32038;SDS011;18549;42.286;22.688;2023-05-19T08:26:03;14.40;;;6.00;;
32038;SDS011;18549;42.286;22.688;2023-05-19T08:28:30;10.45;;;7.15;;
32038;SDS011;18549;42.286;22.688;2023-05-19T08:30:57;11.85;;;7.22;;
32038;SDS011;18549;42.286;22.688;2023-05-19T08:33:23;12.70;;;6.53;;
32038;SDS011;18549;42.286;22.688;2023-05-19T08:35:51;9.35;;;6.93;;
32038;SDS011;18549;42.286;22.688;2023-05-19T08:38:19;11.80;;;6.75;;
32038;SDS011;18549;42.286;22.688;2023-05-19T08:40:46;14.73;;;6.90;;
32038;SDS011;18549;42.286;22.688;2023-05-19T08:43:13;9.77;;;7.05;;
32038;SDS011;18549;42.286;22.688;2023-05-19T08:45:39;9.85;;;7.22;;
32038;SDS011;18549;42.286;22.688;2023-05-19T08:48:08;13.90;;;7.80;;
32038;SDS011;18549;42.286;22.688;2023-05-19T08:50:38;12.23;;;6.95;;
32038;SDS011;18549;42.286;22.688;2023-05-19T08:53:09;7.95;;;6.50;;
32038;SDS011;18549;42.286;22.688;2023-05-19T08:55:40;8.05;;;7.03;;
32038;SDS011;18549;42.286;22.688;2023-05-19T08:58:09;9.02;;;7.35;;
32038;SDS011;18549;42.286;22.688;2023-05-19T09:00:37;16.30;;;7.32;;
32038;SDS011;18549;42.286;22.688;2023-05-19T09:03:04;8.10;;;7.07;;
32038;SDS011;18549;42.286;22.688;2023-05-19T09:05:32;9.90;;;7.25;;
32038;SDS011;18549;42.286;22.688;2023-05-19T09:07:59;10.73;;;7.80;;
32038;SDS011;18549;42.286;22.688;2023-05-19T09:10:28;9.35;;;6.87;;
32038;SDS011;18549;42.286;22.688;2023-05-19T09:12:54;8.17;;;7.33;;
32038;SDS011;18549;42.286;22.688;2023-05-19T09:15:21;13.43;;;6.68;;
32038;SDS011;18549;42.286;22.688;2023-05-19T09:17:57;14.02;;;7.15;;
32038;SDS011;18549;42.286;22.688;2023-05-19T09:20:31;11.63;;;7.78;;
32038;SDS011;18549;42.286;22.688;2023-05-19T09:22:57;13.20;;;7.33;;
32038;SDS011;18549;42.286;22.688;2023-05-19T09:25:25;9.45;;;7.15;;
32038;SDS011;18549;42.286;22.688;2023-05-19T09:27:54;14.27;;;9.23;;
32038;SDS011;18549;42.286;22.688;2023-05-19T09:30:20;15.85;;;8.18;;
32038;SDS011;18549;42.286;22.688;2023-05-19T09:32:49;15.80;;;7.57;;
32038;SDS011;18549;42.286;22.688;2023-05-19T09:35:16;9.30;;;7.37;;
32038;SDS011;18549;42.286;22.688;2023-05-19T09:37:46;10.05;;;7.82;;
32038;SDS011;18549;42.286;22.688;2023-05-19T09:40:13;10.63;;;7.37;;
32038;SDS011;18549;42.286;22.688;2023-05-19T09:42:41;10.48;;;7.97;;
32038;SDS011;18549;42.286;22.688;2023-05-19T09:45:09;10.45;;;8.63;;
32038;SDS011;18549;42.286;22.688;2023-05-19T09:47:37;13.10;;;8.20;;
32038;SDS011;18549;42.286;22.688;2023-05-19T09:50:05;10.93;;;8.03;;
32038;SDS011;18549;42.286;22.688;2023-05-19T09:52:36;14.05;;;7.65;;
32038;SDS011;18549;42.286;22.688;2023-05-19T09:55:03;14.10;;;8.20;;
32038;SDS011;18549;42.286;22.688;2023-05-19T09:57:34;10.15;;;7.30;;
32038;SDS011;18549;42.286;22.688;2023-05-19T10:00:06;13.15;;;7.70;;
32038;SDS011;18549;42.286;22.688;2023-05-19T10:02:41;11.43;;;8.15;;
32038;SDS011;18549;42.286;22.688;2023-05-19T10:05:12;11.88;;;8.15;;
32038;SDS011;18549;42.286;22.688;2023-05-19T10:07:41;14.32;;;7.62;;
32038;SDS011;18549;42.286;22.688;2023-05-19T10:10:10;11.80;;;8.93;;
32038;SDS011;18549;42.286;22.688;2023-05-19T10:12:38;13.77;;;8.23;;
32038;SDS011;18549;42.286;22.688;2023-05-19T10:15:06;13.43;;;9.20;;
32038;SDS011;18549;42.286;22.688;2023-05-19T10:17:35;15.40;;;7.62;;
32038;SDS011;18549;42.286;22.688;2023-05-19T10:20:06;15.45;;;8.63;;
32038;SDS011;18549;42.286;22.688;2023-05-19T10:22:35;11.40;;;8.13;;
32038;SDS011;18549;42.286;22.688;2023-05-19T10:25:02;13.93;;;7.95;;
32038;SDS011;18549;42.286;22.688;2023-05-19T10:27:29;15.52;;;8.15;;
32038;SDS011;18549;42.286;22.688;2023-05-19T10:29:59;12.75;;;7.57;;
32038;SDS011;18549;42.286;22.688;2023-05-19T10:32:31;10.50;;;8.00;;
32038;SDS011;18549;42.286;22.688;2023-05-19T10:37:59;10.43;;;7.53;;
32038;SDS011;18549;42.286;22.688;2023-05-19T10:40:35;12.85;;;7.50;;
32038;SDS011;18549;42.286;22.688;2023-05-19T10:43:12;12.20;;;7.25;;
32038;SDS011;18549;42.286;22.688;2023-05-19T10:45:46;11.85;;;8.02;;
32038;SDS011;18549;42.286;22.688;2023-05-19T10:48:14;11.82;;;7.80;;
32038;SDS011;18549;42.286;22.688;2023-05-19T10:50:42;11.88;;;7.57;;
32038;SDS011;18549;42.286;22.688;2023-05-19T10:53:14;14.30;;;8.70;;
32038;SDS011;18549;42.286;22.688;2023-05-19T10:55:45;10.40;;;7.35;;
32038;SDS011;18549;42.286;22.688;2023-05-19T11:01:15;12.80;;;8.05;;
32038;SDS011;18549;42.286;22.688;2023-05-19T11:03:45;8.32;;;7.10;;
32038;SDS011;18549;42.286;22.688;2023-05-19T11:06:17;12.20;;;6.57;;
32038;SDS011;18549;42.286;22.688;2023-05-19T11:08:46;11.82;;;6.95;;
32038;SDS011;18549;42.286;22.688;2023-05-19T11:11:17;12.60;;;6.82;;
32038;SDS011;18549;42.286;22.688;2023-05-19T11:13:45;13.48;;;6.97;;
32038;SDS011;18549;42.286;22.688;2023-05-19T11:16:13;13.60;;;6.68;;
32038;SDS011;18549;42.286;22.688;2023-05-19T11:18:46;9.02;;;8.00;;
32038;SDS011;18549;42.286;22.688;2023-05-19T11:21:13;9.07;;;7.53;;
32038;SDS011;18549;42.286;22.688;2023-05-19T11:23:40;9.23;;;7.80;;
32038;SDS011;18549;42.286;22.688;2023-05-19T11:26:09;11.55;;;7.72;;
32038;SDS011;18549;42.286;22.688;2023-05-19T11:28:36;11.65;;;7.22;;
32038;SDS011;18549;42.286;22.688;2023-05-19T11:31:03;12.25;;;7.47;;
32038;SDS011;18549;42.286;22.688;2023-05-19T11:33:34;11.68;;;7.75;;
32038;SDS011;18549;42.286;22.688;2023-05-19T11:36:01;9.95;;;7.57;;
32038;SDS011;18549;42.286;22.688;2023-05-19T11:38:29;15.50;;;7.18;;
32038;SDS011;18549;42.286;22.688;2023-05-19T11:40:57;12.30;;;7.50;;
32038;SDS011;18549;42.286;22.688;2023-05-19T11:43:25;9.60;;;7.10;;
32038;SDS011;18549;42.286;22.688;2023-05-19T11:45:53;14.23;;;7.65;;
32038;SDS011;18549;42.286;22.688;2023-05-19T11:48:20;10.40;;;7.75;;
32038;SDS011;18549;42.286;22.688;2023-05-19T11:50:47;12.57;;;7.07;;
32038;SDS011;18549;42.286;22.688;2023-05-19T11:53:14;16.98;;;7.75;;
32038;SDS011;18549;42.286;22.688;2023-05-19T11:55:44;14.35;;;7.10;;
32038;SDS011;18549;42.286;22.688;2023-05-19T11:58:11;10.68;;;7.37;;
32038;SDS011;18549;42.286;22.688;2023-05-19T12:00:39;10.68;;;6.47;;
32038;SDS011;18549;42.286;22.688;2023-05-19T12:03:09;11.65;;;7.30;;
32038;SDS011;18549;42.286;22.688;2023-05-19T12:05:37;9.20;;;6.95;;
32038;SDS011;18549;42.286;22.688;2023-05-19T12:08:06;13.40;;;7.32;;
32038;SDS011;18549;42.286;22.688;2023-05-19T12:10:33;13.50;;;7.57;;
32038;SDS011;18549;42.286;22.688;2023-05-19T12:13:00;12.48;;;7.75;;
32038;SDS011;18549;42.286;22.688;2023-05-19T12:15:29;10.50;;;7.95;;
32038;SDS011;18549;42.286;22.688;2023-05-19T12:17:59;9.30;;;7.85;;
32038;SDS011;18549;42.286;22.688;2023-05-19T12:20:27;10.45;;;8.27;;
32038;SDS011;18549;42.286;22.688;2023-05-19T12:22:56;9.93;;;7.07;;
32038;SDS011;18549;42.286;22.688;2023-05-19T12:25:23;20.60;;;7.40;;
32038;SDS011;18549;42.286;22.688;2023-05-19T12:27:50;13.18;;;8.52;;
32038;SDS011;18549;42.286;22.688;2023-05-19T12:30:23;12.23;;;7.60;;
32038;SDS011;18549;42.286;22.688;2023-05-19T12:32:52;15.57;;;7.32;;
32038;SDS011;18549;42.286;22.688;2023-05-19T12:35:20;16.73;;;7.50;;
32038;SDS011;18549;42.286;22.688;2023-05-19T12:37:51;10.95;;;7.45;;
32038;SDS011;18549;42.286;22.688;2023-05-19T12:40:18;13.13;;;7.78;;
32038;SDS011;18549;42.286;22.688;2023-05-19T12:42:45;10.63;;;8.00;;
32038;SDS011;18549;42.286;22.688;2023-05-19T12:45:12;16.17;;;7.87;;
32038;SDS011;18549;42.286;22.688;2023-05-19T12:47:39;12.23;;;7.72;;
32038;SDS011;18549;42.286;22.688;2023-05-19T12:50:06;15.45;;;7.20;;
32038;SDS011;18549;42.286;22.688;2023-05-19T12:52:42;8.95;;;6.65;;
32038;SDS011;18549;42.286;22.688;2023-05-19T12:55:11;10.77;;;7.12;;
32038;SDS011;18549;42.286;22.688;2023-05-19T12:57:39;13.02;;;7.35;;
32038;SDS011;18549;42.286;22.688;2023-05-19T13:00:12;17.85;;;7.12;;
32038;SDS011;18549;42.286;22.688;2023-05-19T13:02:54;15.43;;;7.00;;
32038;SDS011;18549;42.286;22.688;2023-05-19T13:05:22;10.63;;;7.82;;
32038;SDS011;18549;42.286;22.688;2023-05-19T13:07:54;14.45;;;7.57;;
32038;SDS011;18549;42.286;22.688;2023-05-19T13:10:21;9.48;;;6.65;;
32038;SDS011;18549;42.286;22.688;2023-05-19T13:12:48;11.77;;;7.30;;
32038;SDS011;18549;42.286;22.688;2023-05-19T13:15:14;16.45;;;6.68;;
32038;SDS011;18549;42.286;22.688;2023-05-19T13:17:41;11.65;;;6.25;;
32038;SDS011;18549;42.286;22.688;2023-05-19T13:20:10;13.95;;;6.93;;
32038;SDS011;18549;42.286;22.688;2023-05-19T13:22:37;20.70;;;6.40;;
32038;SDS011;18549;42.286;22.688;2023-05-19T13:25:06;7.50;;;5.87;;
32038;SDS011;18549;42.286;22.688;2023-05-19T13:27:33;11.70;;;6.30;;
32038;SDS011;18549;42.286;22.688;2023-05-19T13:30:00;13.82;;;7.55;;
32038;SDS011;18549;42.286;22.688;2023-05-19T13:32:27;11.95;;;8.15;;
32038;SDS011;18549;42.286;22.688;2023-05-19T13:34:53;12.25;;;7.07;;
32038;SDS011;18549;42.286;22.688;2023-05-19T13:37:20;10.68;;;7.35;;
32038;SDS011;18549;42.286;22.688;2023-05-19T13:39:47;8.57;;;6.53;;
32038;SDS011;18549;42.286;22.688;2023-05-19T13:42:15;10.85;;;6.75;;
32038;SDS011;18549;42.286;22.688;2023-05-19T13:44:43;13.77;;;7.97;;
32038;SDS011;18549;42.286;22.688;2023-05-19T13:47:10;7.93;;;6.65;;
32038;SDS011;18549;42.286;22.688;2023-05-19T13:49:36;9.60;;;7.05;;
32038;SDS011;18549;42.286;22.688;2023-05-19T13:52:04;9.95;;;7.25;;
32038;SDS011;18549;42.286;22.688;2023-05-19T13:54:31;16.02;;;8.15;;
32038;SDS011;18549;42.286;22.688;2023-05-19T13:56:59;11.38;;;7.97;;
32038;SDS011;18549;42.286;22.688;2023-05-19T13:59:27;10.77;;;7.70;;
32038;SDS011;18549;42.286;22.688;2023-05-19T14:01:53;11.65;;;7.90;;
32038;SDS011;18549;42.286;22.688;2023-05-19T14:04:20;11.85;;;8.00;;
32038;SDS011;18549;42.286;22.688;2023-05-19T14:06:47;8.68;;;7.78;;
32038;SDS011;18549;42.286;22.688;2023-05-19T14:09:14;15.50;;;7.55;;
32038;SDS011;18549;42.286;22.688;2023-05-19T14:11:41;14.15;;;8.57;;
32038;SDS011;18549;42.286;22.688;2023-05-19T14:14:08;14.48;;;9.05;;
32038;SDS011;18549;42.286;22.688;2023-05-19T14:16:36;13.60;;;8.30;;
32038;SDS011;18549;42.286;22.688;2023-05-19T14:19:02;15.70;;;8.88;;
32038;SDS011;18549;42.286;22.688;2023-05-19T14:21:29;13.38;;;7.90;;
32038;SDS011;18549;42.286;22.688;2023-05-19T14:23:56;17.02;;;7.93;;
32038;SDS011;18549;42.286;22.688;2023-05-19T14:26:23;15.55;;;8.85;;
32038;SDS011;18549;42.286;22.688;2023-05-19T14:28:50;16.05;;;8.68;;
32038;SDS011;18549;42.286;22.688;2023-05-19T14:31:17;13.25;;;8.15;;
32038;SDS011;18549;42.286;22.688;2023-05-19T14:33:45;13.23;;;7.53;;
32038;SDS011;18549;42.286;22.688;2023-05-19T14:36:12;10.38;;;7.28;;
32038;SDS011;18549;42.286;22.688;2023-05-19T14:38:38;18.58;;;7.70;;
32038;SDS011;18549;42.286;22.688;2023-05-19T14:41:05;12.25;;;7.97;;
32038;SDS011;18549;42.286;22.688;2023-05-19T14:43:32;14.40;;;7.32;;